Time;durP1;ratioP1;P1;durP2;ratioP2;P2;SDS_P1;SDS_P2;PMS_P1;PMS_P2;Temp;Humidity;BMP_temperature;BMP_pressure;BME280_temperature;BME280_humidity;BME280_pressure;Samples;Min_cycle;Max_cycle;Signal;HPM_P1;HPM_P2
2022/02/11 00:04:07;;;;;;;0.60;0.60;;;;;;;7.94;67.24;100379.39;103486;1276;98925;-66
2022/02/11 00:09:14;;;;;;;0.60;0.60;;;;;;;7.75;66.73;100380.73;103483;1276;95129;-66
2022/02/11 00:11:41;;;;;;;0.70;0.70;;;;;;;7.62;66.52;100387.11;103590;1275;95238;-66
2022/02/11 00:14:10;;;;;;;0.70;0.70;;;;;;;7.58;66.65;100392.83;103443;1276;138561;-67
2022/02/11 00:16:38;;;;;;;0.60;0.60;;;;;;;7.58;66.64;100400.25;103556;1276;97987;-65
2022/02/11 00:19:10;;;;;;;0.60;0.60;;;;;;;7.64;66.51;100405.82;103445;1276;138312;-66
2022/02/11 00:21:39;;;;;;;0.60;0.60;;;;;;;7.67;66.71;100405.60;103512;1276;96493;-67
2022/02/11 00:24:07;;;;;;;0.70;0.70;;;;;;;7.71;66.61;100404.83;103541;1276;95214;-66
2022/02/11 00:26:37;;;;;;;0.70;0.70;;;;;;;7.68;66.24;100414.77;103483;1276;138712;-66
2022/02/11 00:34:26;;;;;;;0.60;0.60;;;;;;;7.50;66.08;100420.67;103448;1276;95548;-67
2022/02/11 00:37:18;;;;;;;0.60;0.60;;;;;;;7.48;66.26;100418.91;103419;1278;139012;-64
2022/02/11 01:04:07;;;;;;;0.70;0.70;;;;;;;7.21;66.41;100439.05;103525;1276;95656;-66
2022/02/11 01:06:34;;;;;;;0.70;0.70;;;;;;;7.16;66.28;100433.62;103562;1276;138991;-65
2022/02/11 01:09:03;;;;;;;0.70;0.70;;;;;;;7.14;66.39;100436.13;103581;1275;97724;-65
2022/02/11 01:11:41;;;;;;;0.70;0.70;;;;;;;7.10;66.49;100434.95;103440;1276;108377;-65
2022/02/11 01:14:09;;;;;;;0.70;0.70;;;;;;;7.02;66.56;100434.67;103437;1273;138514;-66
2022/02/11 01:21:50;;;;;;;0.60;0.60;;;;;;;7.13;66.37;100434.54;103606;1276;99497;-66
2022/02/11 01:32:21;;;;;;;0.70;0.70;;;;;;;7.20;66.16;100425.98;103468;1276;138352;-66
2022/02/11 02:17:11;;;;;;;0.60;0.60;;;;;;;6.87;67.57;100431.66;103591;1276;108261;-66
2022/02/11 02:38:02;;;;;;;0.70;0.70;;;;;;;6.46;67.39;100447.05;103456;1276;138479;-66
2022/02/11 02:57:20;;;;;;;0.70;0.70;;;;;;;6.62;67.25;100445.84;103420;1276;138882;-65
2022/02/11 03:49:26;;;;;;;0.70;0.70;;;;;;;6.57;66.61;100485.59;103387;1276;138473;-66
2022/02/11 04:08:23;;;;;;;0.80;0.80;;;;;;;6.70;66.75;100484.23;103477;1276;109295;-66
2022/02/11 04:28:25;;;;;;;0.70;0.70;;;;;;;6.69;66.72;100478.77;103401;1276;139226;-66
2022/02/11 04:55:31;;;;;;;0.70;0.70;;;;;;;6.43;66.46;100489.93;103454;1276;138633;-66
2022/02/11 05:00:45;;;;;;;0.80;0.80;;;;;;;6.55;66.25;100487.01;103475;1276;108822;-65
2022/02/11 05:03:14;;;;;;;0.80;0.80;;;;;;;6.51;65.86;100485.27;103427;1276;138085;-65
2022/02/11 05:05:51;;;;;;;0.70;0.70;;;;;;;6.51;66.01;100481.58;103794;1276;95639;-64
2022/02/11 05:08:24;;;;;;;0.80;0.80;;;;;;;6.51;65.78;100481.23;103393;1276;138414;-64
2022/02/11 05:10:55;;;;;;;0.80;0.80;;;;;;;6.49;65.80;100483.18;103574;1276;99302;-65
2022/02/11 05:13:23;;;;;;;0.80;0.80;;;;;;;6.49;65.70;100483.71;103416;1276;138889;-66
2022/02/11 05:15:52;;;;;;;0.70;0.70;;;;;;;6.46;65.79;100480.38;103636;1276;95213;-66
2022/02/11 05:18:20;;;;;;;0.60;0.60;;;;;;;6.45;65.63;100480.56;103528;1276;95970;-66
2022/02/11 05:20:48;;;;;;;0.70;0.70;;;;;;;6.47;65.88;100482.14;103493;1276;137784;-66
2022/02/11 05:23:17;;;;;;;0.70;0.70;;;;;;;6.53;65.77;100480.85;103536;1276;99353;-66
2022/02/11 05:25:45;;;;;;;0.70;0.70;;;;;;;6.58;65.62;100484.17;103543;1276;138454;-64
2022/02/11 05:28:13;;;;;;;0.70;0.70;;;;;;;6.59;65.38;100491.92;103540;1275;95245;-66
2022/02/11 05:30:42;;;;;;;0.70;0.70;;;;;;;6.60;65.42;100495.27;103858;1276;95578;-68
2022/02/11 05:33:12;;;;;;;0.80;0.80;;;;;;;6.49;65.13;100493.75;103493;1276;137758;-66
2022/02/11 05:35:40;;;;;;;0.80;0.80;;;;;;;6.46;65.59;100490.43;103616;1275;98994;-66
2022/02/11 05:38:11;;;;;;;0.70;0.70;;;;;;;6.49;65.43;100489.71;103399;1276;138689;-65
2022/02/11 05:40:38;;;;;;;0.70;0.70;;;;;;;6.47;65.68;100487.08;103474;1276;95539;-65
2022/02/11 05:43:06;;;;;;;0.80;0.80;;;;;;;6.40;65.31;100483.08;103477;1276;138744;-65
2022/02/11 05:45:34;;;;;;;0.70;0.70;;;;;;;6.37;65.73;100487.87;103513;1274;109553;-65
2022/02/11 05:48:03;;;;;;;0.70;0.70;;;;;;;6.35;65.57;100488.94;103461;1276;98407;-65
2022/02/11 05:50:31;;;;;;;0.70;0.70;;;;;;;6.28;65.77;100495.69;103456;1276;138301;-67
2022/02/11 05:53:05;;;;;;;0.70;0.70;;;;;;;6.29;66.11;100497.45;103455;1276;95808;-67
2022/02/11 05:55:34;;;;;;;0.70;0.70;;;;;;;6.26;65.81;100497.82;103450;1276;137776;-66
2022/02/11 05:58:03;;;;;;;0.70;0.70;;;;;;;6.14;65.80;100502.30;103700;1276;109836;-65
2022/02/11 06:00:31;;;;;;;0.70;0.70;;;;;;;6.11;66.16;100504.09;103461;1276;99919;-66
2022/02/11 06:02:59;;;;;;;0.80;0.80;;;;;;;6.10;66.06;100507.27;103414;1276;137964;-65
2022/02/11 06:05:27;;;;;;;0.80;0.80;;;;;;;6.02;66.04;100510.48;103467;1276;95137;-66
2022/02/11 06:07:55;;;;;;;0.90;0.90;;;;;;;6.07;66.58;100510.63;103364;1276;138482;-65
2022/02/11 06:10:23;;;;;;;0.70;0.70;;;;;;;6.18;66.51;100511.63;103465;1276;110697;-63
2022/02/11 06:12:50;;;;;;;0.80;0.80;;;;;;;6.23;66.35;100510.17;103526;1276;99381;-66
2022/02/11 06:15:19;;;;;;;0.80;0.80;;;;;;;6.25;66.34;100514.92;103397;1276;138428;-65
2022/02/11 06:17:47;;;;;;;0.70;0.70;;;;;;;6.28;66.31;100510.68;103476;1276;95737;-65
2022/02/11 06:20:14;;;;;;;0.70;0.70;;;;;;;6.32;66.64;100509.06;103386;1276;138500;-66
2022/02/11 06:22:44;;;;;;;0.70;0.70;;;;;;;6.34;66.43;100502.88;103414;1276;109826;-66
2022/02/11 06:25:13;;;;;;;0.70;0.70;;;;;;;6.28;66.54;100500.27;103483;1276;138130;-65
2022/02/11 06:27:44;;;;;;;0.70;0.70;;;;;;;6.31;66.89;100497.77;103546;1276;107499;-65
2022/02/11 06:30:13;;;;;;;0.80;0.80;;;;;;;6.42;67.01;100495.77;103542;1276;95633;-65
2022/02/11 06:32:41;;;;;;;0.70;0.70;;;;;;;6.50;66.54;100500.44;103444;1276;138310;-65
2022/02/11 06:35:11;;;;;;;0.80;0.80;;;;;;;6.59;66.64;100502.16;103470;1276;108666;-65
2022/02/11 06:37:45;;;;;;;0.70;0.70;;;;;;;6.59;66.41;100502.49;103680;1276;139120;-65
2022/02/11 06:40:14;;;;;;;0.70;0.70;;;;;;;6.65;66.79;100507.75;103593;1276;108983;-67
2022/02/11 06:42:42;;;;;;;0.70;0.70;;;;;;;6.76;66.44;100508.70;103491;1279;95163;-64
2022/02/11 06:45:10;;;;;;;0.70;0.70;;;;;;;6.79;66.28;100512.22;103528;1276;138624;-66
2022/02/11 06:47:39;;;;;;;0.70;0.70;;;;;;;6.88;66.05;100512.14;103510;1276;109406;-64
2022/02/11 06:50:08;;;;;;;0.70;0.70;;;;;;;6.87;65.85;100512.32;103416;1276;139235;-66
2022/02/11 06:52:36;;;;;;;0.70;0.70;;;;;;;6.80;66.00;100513.61;103451;1276;107945;-63
2022/02/11 06:55:04;;;;;;;0.70;0.70;;;;;;;6.81;66.21;100518.90;103436;1276;139348;-64
2022/02/11 06:57:34;;;;;;;0.70;0.70;;;;;;;6.86;66.33;100521.15;103514;1276;95638;-65
2022/02/11 07:00:02;;;;;;;0.70;0.70;;;;;;;6.82;66.23;100526.66;103524;1276;109368;-66
2022/02/11 07:02:32;;;;;;;0.80;0.80;;;;;;;6.77;66.10;100531.46;103534;1276;138633;-66
2022/02/11 07:05:00;;;;;;;0.70;0.70;;;;;;;6.74;66.20;100526.02;103768;1276;108869;-65
2022/02/11 07:07:28;;;;;;;0.70;0.70;;;;;;;6.73;66.18;100527.98;103663;1276;138816;-65
2022/02/11 07:09:56;;;;;;;0.80;0.80;;;;;;;6.83;66.44;100527.52;103559;1276;95122;-67
2022/02/11 07:12:25;;;;;;;0.70;0.70;;;;;;;6.95;66.20;100528.65;103643;1276;110503;-66
2022/02/11 07:14:53;;;;;;;0.60;0.60;;;;;;;7.00;65.91;100538.50;103487;1278;138729;-66
2022/02/11 07:17:23;;;;;;;0.70;0.70;;;;;;;6.95;65.70;100537.30;103542;1276;109001;-64
2022/02/11 07:19:50;;;;;;;0.70;0.70;;;;;;;6.90;65.84;100535.24;103431;1276;138505;-66
2022/02/11 07:22:18;;;;;;;0.70;0.70;;;;;;;6.86;66.25;100535.63;103589;1276;95255;-65
2022/02/11 07:24:48;;;;;;;0.60;0.60;;;;;;;6.97;66.34;100539.23;103565;1276;109748;-68
2022/02/11 07:27:19;;;;;;;0.70;0.70;;;;;;;7.05;66.16;100544.10;103425;1276;138360;-66
2022/02/11 07:29:47;;;;;;;0.70;0.70;;;;;;;6.98;65.68;100541.34;103543;1276;108404;-66
2022/02/11 07:32:15;;;;;;;0.70;0.70;;;;;;;6.93;66.11;100539.98;103463;1276;138283;-65
2022/02/11 07:34:45;;;;;;;0.70;0.70;;;;;;;6.96;66.08;100542.60;103575;1276;95626;-66
2022/02/11 07:37:13;;;;;;;0.70;0.70;;;;;;;6.87;66.28;100543.20;103521;1276;139166;-65
2022/02/11 07:39:52;;;;;;;0.60;0.60;;;;;;;6.85;66.67;100543.93;103531;1276;99477;-65
2022/02/11 07:42:20;;;;;;;0.70;0.70;;;;;;;6.87;66.48;100542.67;103582;1276;109344;-64
2022/02/11 07:44:48;;;;;;;0.70;0.70;;;;;;;6.86;66.43;100539.68;103396;1276;137926;-66
2022/02/11 07:47:16;;;;;;;0.60;0.60;;;;;;;6.90;66.72;100538.06;103526;1276;95595;-66
2022/02/11 07:49:45;;;;;;;0.60;0.60;;;;;;;6.98;66.69;100535.70;103360;1276;137924;-65
2022/02/11 07:52:12;;;;;;;0.70;0.70;;;;;;;7.02;66.35;100537.06;103509;1276;99367;-66
2022/02/11 07:54:42;;;;;;;0.70;0.70;;;;;;;7.07;66.45;100537.20;103479;1276;109055;-66
2022/02/11 07:57:10;;;;;;;0.60;0.60;;;;;;;7.05;66.04;100533.16;103984;1276;139837;-63
2022/02/11 07:59:44;;;;;;;0.60;0.60;;;;;;;6.96;66.20;100536.24;103516;1276;95227;-65
2022/02/11 08:02:12;;;;;;;0.70;0.70;;;;;;;6.95;66.56;100530.77;103374;1276;138009;-65
2022/02/11 08:04:40;;;;;;;0.70;0.70;;;;;;;7.02;66.73;100527.35;103437;1276;99396;-66
2022/02/11 08:07:08;;;;;;;0.70;0.70;;;;;;;7.05;66.67;100524.69;103300;1275;138632;-65
2022/02/11 08:09:36;;;;;;;0.60;0.60;;;;;;;7.13;66.74;100527.78;103565;1276;95435;-67
2022/02/11 08:12:04;;;;;;;0.60;0.60;;;;;;;7.21;66.55;100528.58;103846;1276;95841;-66
2022/02/11 08:14:32;;;;;;;0.60;0.60;;;;;;;7.29;66.37;100530.27;103478;1276;138061;-65
2022/02/11 08:17:00;;;;;;;0.60;0.60;;;;;;;7.38;66.43;100526.45;103580;1276;99540;-64
2022/02/11 08:19:28;;;;;;;0.60;0.60;;;;;;;7.45;66.04;100527.79;103438;1276;138927;-65
2022/02/11 08:21:58;;;;;;;0.60;0.60;;;;;;;7.38;65.65;100529.64;103532;1276;95958;-65
2022/02/11 08:24:26;;;;;;;0.70;0.70;;;;;;;7.29;65.97;100532.20;103551;1276;97314;-66
2022/02/11 08:26:54;;;;;;;0.60;0.60;;;;;;;7.27;66.26;100530.29;103315;1276;138320;-66
2022/02/11 08:29:25;;;;;;;0.60;0.60;;;;;;;7.24;66.72;100534.73;103560;1276;99149;-65
2022/02/11 08:31:56;;;;;;;0.60;0.60;;;;;;;7.38;66.59;100537.94;103430;1276;139142;-66
2022/02/11 08:34:25;;;;;;;0.60;0.60;;;;;;;7.44;66.35;100538.76;103572;1276;95802;-64
2022/02/11 08:36:52;;;;;;;0.60;0.60;;;;;;;7.55;66.70;100539.52;103497;1276;95509;-65
2022/02/11 08:39:20;;;;;;;0.60;0.60;;;;;;;7.63;66.71;100542.08;103338;1276;138835;-67
2022/02/11 08:41:49;;;;;;;0.60;0.60;;;;;;;7.64;66.54;100539.93;103518;1276;99480;-65
2022/02/11 08:44:16;;;;;;;0.60;0.60;;;;;;;7.68;66.73;100542.00;103358;1276;138835;-66
2022/02/11 08:46:45;;;;;;;0.50;0.50;;;;;;;7.76;66.71;100540.48;103554;1276;95625;-66
2022/02/11 08:49:13;;;;;;;0.60;0.60;;;;;;;7.69;66.06;100538.98;103398;1276;138115;-64
2022/02/11 08:51:41;;;;;;;0.60;0.60;;;;;;;7.56;65.93;100543.39;103565;1276;109784;-65
2022/02/11 08:54:09;;;;;;;0.60;0.60;;;;;;;7.34;65.61;100543.64;103530;1276;99637;-67
2022/02/11 08:56:39;;;;;;;0.60;0.60;;;;;;;7.15;65.76;100540.81;103341;1276;138580;-66
2022/02/11 08:59:07;;;;;;;0.60;0.60;;;;;;;7.16;65.68;100533.73;103506;1276;95621;-67
2022/02/11 09:01:35;;;;;;;0.60;0.60;;;;;;;7.23;65.68;100531.02;103407;1276;138779;-65
2022/02/11 09:04:03;;;;;;;0.60;0.60;;;;;;;7.32;65.69;100528.80;103502;1276;109282;-66
2022/02/11 09:06:31;;;;;;;0.70;0.70;;;;;;;7.38;65.23;100523.65;103534;1276;97431;-64
2022/02/11 09:08:59;;;;;;;0.60;0.60;;;;;;;7.44;65.35;100525.70;103411;1276;138647;-66
2022/02/11 09:11:30;;;;;;;0.60;0.60;;;;;;;7.46;65.46;100531.49;103494;1276;95312;-65
2022/02/11 09:14:02;;;;;;;0.70;0.70;;;;;;;7.53;65.61;100528.76;103853;1276;138559;-65
2022/02/11 09:16:30;;;;;;;0.60;0.60;;;;;;;7.54;65.83;100531.58;103507;1276;109487;-65
2022/02/11 09:19:00;;;;;;;0.60;0.60;;;;;;;7.47;65.35;100530.60;103506;1276;99242;-65
2022/02/11 09:21:28;;;;;;;0.70;0.70;;;;;;;7.40;65.88;100533.68;103621;1276;138157;-64
2022/02/11 09:23:56;;;;;;;0.70;0.70;;;;;;;7.45;66.32;100536.79;103486;1276;95843;-66
2022/02/11 09:26:24;;;;;;;0.70;0.70;;;;;;;7.56;66.15;100537.91;103443;1276;138120;-64
2022/02/11 09:28:52;;;;;;;0.60;0.60;;;;;;;7.59;65.88;100541.77;103498;1276;109196;-66
2022/02/11 09:31:26;;;;;;;0.70;0.70;;;;;;;7.61;66.11;100546.52;103391;1276;139008;-65
2022/02/11 09:34:02;;;;;;;0.50;0.50;;;;;;;7.62;66.02;100541.38;103465;1276;108577;-64
2022/02/11 09:36:33;;;;;;;0.60;0.60;;;;;;;7.66;66.30;100545.04;103488;1276;95397;-64
2022/02/11 09:39:04;;;;;;;0.60;0.60;;;;;;;7.69;66.09;100546.06;103540;1275;138479;-65
2022/02/11 09:41:34;;;;;;;0.60;0.60;;;;;;;7.74;65.98;100548.13;103601;1276;108452;-66
2022/02/11 09:44:04;;;;;;;0.50;0.50;;;;;;;7.75;65.90;100546.71;103752;1276;138256;-65
2022/02/11 09:46:36;;;;;;;0.60;0.60;;;;;;;7.69;65.41;100544.82;103593;1276;108286;-65
2022/02/11 09:49:05;;;;;;;0.60;0.60;;;;;;;7.68;65.82;100547.84;103444;1276;95391;-65
2022/02/11 09:51:32;;;;;;;0.60;0.60;;;;;;;7.78;65.88;100552.48;103464;1276;138598;-66
2022/02/11 09:54:02;;;;;;;0.60;0.60;;;;;;;7.81;65.54;100549.10;103547;1276;109767;-65
2022/02/11 09:56:31;;;;;;;0.60;0.60;;;;;;;7.81;65.23;100542.38;103433;1276;138337;-65
2022/02/11 09:59:06;;;;;;;0.60;0.60;;;;;;;7.78;64.90;100538.89;103437;1276;108819;-66
2022/02/11 10:01:35;;;;;;;0.70;0.70;;;;;;;7.73;64.59;100543.19;103203;1276;139301;-65
2022/02/11 10:04:10;;;;;;;0.60;0.60;;;;;;;7.68;64.59;100540.77;103792;1276;95423;-65
2022/02/11 10:06:39;;;;;;;0.70;0.70;;;;;;;7.67;64.54;100530.52;103421;1276;109644;-65
2022/02/11 10:09:07;;;;;;;0.70;0.70;;;;;;;7.73;64.65;100526.23;103352;1276;140938;-65
2022/02/11 10:11:36;;;;;;;0.60;0.60;;;;;;;7.79;64.26;100528.09;103392;1276;108892;-65
2022/02/11 10:14:17;;;;;;;0.60;0.60;;;;;;;7.77;64.31;100529.53;103334;1276;138614;-67
2022/02/11 10:17:24;;;;;;;0.60;0.60;;;;;;;7.74;64.33;100528.68;103510;1276;95778;-65
2022/02/11 10:19:54;;;;;;;0.60;0.60;;;;;;;7.76;65.20;100529.89;102981;1276;138358;-65
2022/02/11 10:22:23;;;;;;;0.60;0.60;;;;;;;7.76;64.23;100530.08;103745;1276;99968;-65
2022/02/11 10:24:55;;;;;;;0.60;0.60;;;;;;;7.68;64.45;100528.21;103374;1276;108837;-64
2022/02/11 10:27:24;;;;;;;0.70;0.70;;;;;;;7.76;63.86;100523.02;103326;1276;138575;-66
2022/02/11 10:30:00;;;;;;;0.70;0.70;;;;;;;7.76;63.80;100522.66;103707;1276;95110;-65
2022/02/11 10:32:35;;;;;;;0.70;0.70;;;;;;;7.68;64.96;100524.34;103421;1276;138099;-66
2022/02/11 10:35:05;;;;;;;0.60;0.60;;;;;;;7.58;64.50;100523.94;103416;1276;99618;-64
2022/02/11 10:37:33;;;;;;;0.60;0.60;;;;;;;7.48;64.70;100523.86;103516;1276;138083;-66
2022/02/11 10:40:03;;;;;;;0.80;0.80;;;;;;;7.44;64.77;100524.45;103423;1276;95723;-65
2022/02/11 10:42:45;;;;;;;0.70;0.70;;;;;;;7.34;65.78;100528.45;104010;1276;95596;-67
2022/02/11 10:45:31;;;;;;;0.70;0.70;;;;;;;7.48;65.86;100532.36;103528;1276;139123;-65
2022/02/11 10:48:09;;;;;;;0.70;0.70;;;;;;;7.62;65.21;100529.70;103401;1276;99567;-65
2022/02/11 10:50:38;;;;;;;0.60;0.60;;;;;;;7.71;64.95;100529.25;103246;1276;138504;-66
2022/02/11 10:53:08;;;;;;;0.60;0.60;;;;;;;7.74;64.03;100526.94;103457;1276;95686;-64
2022/02/11 10:55:49;;;;;;;0.60;0.60;;;;;;;7.58;63.51;100529.23;103344;1276;138770;-64
2022/02/11 10:58:19;;;;;;;0.60;0.60;;;;;;;7.29;64.29;100527.61;103755;1276;109719;-66
2022/02/11 11:00:47;;;;;;;0.60;0.60;;;;;;;7.28;65.31;100528.88;103647;1276;99396;-65
2022/02/11 11:03:15;;;;;;;0.60;0.60;;;;;;;7.23;65.94;100520.79;103876;1276;138115;-64
2022/02/11 11:05:45;;;;;;;0.60;0.60;;;;;;;7.34;64.89;100519.27;103371;1277;95651;-64
2022/02/11 11:08:15;;;;;;;0.80;0.80;;;;;;;7.48;65.03;100521.05;103397;1276;138455;-66
2022/02/11 11:10:46;;;;;;;0.60;0.60;;;;;;;7.53;64.68;100521.52;103404;1278;109835;-65
2022/02/11 11:13:15;;;;;;;0.70;0.70;;;;;;;7.57;64.79;100526.59;103263;1277;99441;-65
2022/02/11 11:15:44;;;;;;;0.60;0.60;;;;;;;7.57;64.25;100522.70;103441;1276;138830;-65
2022/02/11 11:18:13;;;;;;;0.60;0.60;;;;;;;7.53;64.97;100523.45;103698;1276;95211;-66
2022/02/11 11:20:49;;;;;;;0.60;0.60;;;;;;;7.52;64.12;100527.36;103147;1278;138714;-65
2022/02/11 11:23:23;;;;;;;0.70;0.70;;;;;;;7.36;64.34;100529.30;103412;1276;108345;-63
2022/02/11 11:26:02;;;;;;;0.80;0.80;;;;;;;7.15;63.91;100533.06;103605;1276;138561;-64
2022/02/11 11:29:03;;;;;;;0.70;0.70;;;;;;;6.91;63.38;100533.11;103492;1278;108849;-64
2022/02/11 11:31:31;;;;;;;0.80;0.80;;;;;;;6.76;63.54;100533.06;103503;1276;139085;-65
2022/02/11 11:34:17;;;;;;;0.70;0.70;;;;;;;6.66;64.45;100534.73;103518;1277;95460;-66
2022/02/11 11:36:50;;;;;;;0.80;0.80;;;;;;;6.66;64.72;100528.91;103410;1277;111603;-64
2022/02/11 11:39:21;;;;;;;0.90;0.90;;;;;;;6.65;64.35;100525.04;103410;1278;138602;-65
2022/02/11 11:41:58;;;;;;;0.70;0.70;;;;;;;6.64;64.26;100524.52;103661;1278;107871;-65
2022/02/11 11:44:41;;;;;;;0.80;0.80;;;;;;;6.65;64.42;100521.69;103348;1278;138307;-65
2022/02/11 11:47:36;;;;;;;0.80;0.80;;;;;;;6.67;64.22;100516.55;103601;1276;95244;-66
2022/02/11 11:50:07;;;;;;;0.90;0.90;;;;;;;6.66;64.71;100517.44;103293;1277;139068;-66
2022/02/11 11:52:41;;;;;;;0.70;0.70;;;;;;;6.64;64.73;100511.98;103578;1277;97946;-65
2022/02/11 11:55:16;;;;;;;0.70;0.70;;;;;;;6.68;64.69;100512.48;103631;1277;107076;-65
2022/02/11 11:57:44;;;;;;;0.90;0.90;;;;;;;6.72;64.36;100511.92;103524;1277;138739;-66
2022/02/11 12:00:12;;;;;;;0.90;0.90;;;;;;;6.66;64.45;100510.73;103509;1276;96870;-66
2022/02/11 12:02:48;;;;;;;0.70;0.70;;;;;;;6.60;64.69;100509.91;103385;1277;138408;-66
2022/02/11 12:05:43;;;;;;;0.70;0.70;;;;;;;6.60;64.76;100510.27;103587;1276;98735;-66
2022/02/11 12:08:11;;;;;;;0.80;0.80;;;;;;;6.55;64.38;100509.41;103441;1277;137818;-65
2022/02/11 12:10:39;;;;;;;0.80;0.80;;;;;;;6.51;64.59;100507.69;103423;1277;95774;-65
2022/02/11 12:13:07;;;;;;;0.80;0.80;;;;;;;6.38;64.83;100510.77;103544;1277;95845;-65
2022/02/11 12:15:35;;;;;;;0.70;0.70;;;;;;;6.37;65.06;100512.37;103335;1278;138069;-65
2022/02/11 12:18:03;;;;;;;0.70;0.70;;;;;;;6.43;65.75;100508.80;103451;1277;99400;-65
2022/02/11 12:20:31;;;;;;;0.70;0.70;;;;;;;6.46;65.79;100508.25;103251;1276;138033;-65
2022/02/11 12:28:35;;;;;;;0.70;0.70;;;;;;;6.61;65.88;100508.14;103436;1277;109440;-65
2022/02/11 12:31:06;;;;;;;0.70;0.70;;;;;;;6.66;65.89;100510.56;103504;1276;99406;-65
2022/02/11 12:33:34;;;;;;;0.80;0.80;;;;;;;6.68;65.38;100507.36;103338;1277;138091;-64
2022/02/11 12:36:11;;;;;;;0.70;0.70;;;;;;;6.62;65.87;100504.09;103522;1277;96403;-65
2022/02/11 12:38:40;;;;;;;0.80;0.80;;;;;;;6.68;65.99;100505.07;103411;1278;138503;-64
2022/02/11 12:41:08;;;;;;;0.80;0.80;;;;;;;6.80;65.68;100503.38;103472;1276;109470;-64
2022/02/11 12:43:36;;;;;;;0.80;0.80;;;;;;;6.77;65.21;100502.00;103508;1277;138125;-64
2022/02/11 12:46:08;;;;;;;0.80;0.80;;;;;;;6.70;65.28;100503.98;103370;1277;109651;-66
2022/02/11 12:48:38;;;;;;;0.90;0.90;;;;;;;6.61;65.20;100505.31;103332;1277;95240;-64
2022/02/11 12:51:08;;;;;;;0.80;0.80;;;;;;;6.54;65.29;100505.55;103261;1278;138500;-66
2022/02/11 12:53:36;;;;;;;0.80;0.80;;;;;;;6.59;65.82;100505.15;103412;1278;110435;-65
2022/02/11 12:56:12;;;;;;;0.80;0.80;;;;;;;6.56;65.48;100507.29;103276;1277;138441;-66
2022/02/11 12:58:39;;;;;;;0.80;0.80;;;;;;;6.57;65.70;100513.29;103459;1277;108760;-65
2022/02/11 13:01:08;;;;;;;0.80;0.80;;;;;;;6.64;65.81;100516.76;103398;1277;95815;-64
2022/02/11 13:03:36;;;;;;;0.80;0.80;;;;;;;6.64;65.64;100518.88;103262;1277;139753;-65
2022/02/11 13:06:04;;;;;;;0.80;0.80;;;;;;;6.63;65.74;100515.17;103331;1277;109556;-65
2022/02/11 13:08:32;;;;;;;0.80;0.80;;;;;;;6.48;65.61;100519.19;103091;1277;138565;-66
2022/02/11 13:11:02;;;;;;;0.80;0.80;;;;;;;6.37;65.75;100521.01;103157;1277;109123;-64
2022/02/11 13:13:30;;;;;;;0.70;0.70;;;;;;;6.33;65.82;100524.57;103202;1277;139690;-64
2022/02/11 13:16:01;;;;;;;0.70;0.70;;;;;;;6.36;65.91;100523.67;107450;1276;93232;-65
2022/02/11 13:18:32;;;;;;;0.70;0.70;;;;;;;6.29;65.71;100527.08;104696;1276;109326;-65
2022/02/11 13:21:04;;;;;;;0.80;0.80;;;;;;;6.19;66.14;100522.89;103815;1276;138982;-65
2022/02/11 13:23:33;;;;;;;0.80;0.80;;;;;;;6.17;66.22;100523.09;103484;1276;108639;-64
2022/02/11 13:26:06;;;;;;;0.70;0.70;;;;;;;6.25;66.09;100523.22;103334;1278;139037;-65
2022/02/11 13:28:43;;;;;;;0.70;0.70;;;;;;;6.26;66.05;100523.38;103441;1277;95141;-64
2022/02/11 13:31:11;;;;;;;0.80;0.80;;;;;;;6.23;66.06;100521.46;103578;1277;110186;-65
2022/02/11 13:33:39;;;;;;;0.80;0.80;;;;;;;6.16;66.09;100528.38;104078;1276;138607;-64
2022/02/11 13:36:10;;;;;;;0.70;0.70;;;;;;;6.09;66.33;100532.66;103449;1277;108893;-66
2022/02/11 13:38:40;;;;;;;0.80;0.80;;;;;;;6.02;66.26;100539.04;103933;1276;138810;-64
2022/02/11 13:41:11;;;;;;;0.90;0.90;;;;;;;5.94;66.42;100545.04;103829;1275;95238;-64
2022/02/11 13:43:48;;;;;;;0.90;0.90;;;;;;;5.90;66.91;100550.17;103900;1276;138348;-65
2022/02/11 13:46:40;;;;;;;1.00;1.00;;;;;;;5.88;66.68;100555.46;103404;1276;98527;-66
2022/02/11 13:49:11;;;;;;;0.90;0.90;;;;;;;5.84;66.55;100559.00;103434;1276;107831;-66
2022/02/11 13:51:40;;;;;;;0.80;0.80;;;;;;;5.80;67.12;100561.14;103267;1276;140031;-66
2022/02/11 13:54:16;;;;;;;0.80;0.80;;;;;;;5.79;67.37;100561.67;103375;1276;95576;-64
2022/02/11 13:56:53;;;;;;;0.90;0.90;;;;;;;5.75;67.18;100563.97;103330;1277;137843;-63
2022/02/11 13:59:30;;;;;;;1.00;1.00;;;;;;;5.71;67.33;100571.22;103601;1277;99634;-65
2022/02/11 14:02:05;;;;;;;0.90;0.90;;;;;;;5.67;67.36;100576.70;103187;1276;138690;-66
2022/02/11 14:04:33;;;;;;;0.90;0.90;;;;;;;5.67;67.50;100581.09;103618;1276;95664;-65
2022/02/11 14:07:03;;;;;;;0.90;0.90;;;;;;;5.56;66.87;100589.41;103649;1276;95759;-66
2022/02/11 14:09:35;;;;;;;0.80;0.80;;;;;;;5.42;67.45;100598.42;103873;1276;138171;-64
2022/02/11 14:12:05;;;;;;;1.00;1.00;;;;;;;5.33;67.27;100600.90;103295;1276;99447;-65
2022/02/11 14:14:34;;;;;;;1.00;1.00;;;;;;;5.24;67.23;100606.02;103447;1276;139146;-65
2022/02/11 14:17:05;;;;;;;1.00;1.00;;;;;;;5.18;67.17;100612.70;103288;1276;95850;-64
2022/02/11 14:19:38;;;;;;;0.90;0.90;;;;;;;5.20;66.91;100616.04;103737;1276;95560;-64
2022/02/11 14:22:06;;;;;;;1.00;1.00;;;;;;;5.15;66.51;100612.89;103193;1277;139058;-64
2022/02/11 14:24:33;;;;;;;1.00;1.00;;;;;;;5.03;66.66;100619.58;103326;1276;99484;-65
2022/02/11 14:27:01;;;;;;;0.90;0.90;;;;;;;4.97;66.71;100623.80;103314;1276;138563;-64
2022/02/11 14:29:29;;;;;;;1.00;1.00;;;;;;;4.97;66.91;100624.67;103486;1277;95224;-65
2022/02/11 14:31:58;;;;;;;0.90;0.90;;;;;;;5.02;66.73;100624.50;103311;1276;137908;-64
2022/02/11 14:34:26;;;;;;;0.90;0.90;;;;;;;4.96;66.76;100630.31;103329;1276;109063;-64
2022/02/11 14:36:54;;;;;;;0.90;0.90;;;;;;;4.92;66.52;100638.40;103395;1276;98901;-65
2022/02/11 14:39:22;;;;;;;0.80;0.80;;;;;;;4.86;66.83;100641.91;103280;1276;138875;-62
2022/02/11 14:41:54;;;;;;;1.00;1.00;;;;;;;4.85;66.77;100646.13;103304;1276;95236;-64
2022/02/11 14:44:30;;;;;;;0.90;0.90;;;;;;;4.74;66.64;100652.11;103264;1276;138494;-65
2022/02/11 14:47:00;;;;;;;1.00;1.00;;;;;;;4.70;67.14;100655.96;103280;1276;109458;-65
2022/02/11 14:49:29;;;;;;;1.00;1.00;;;;;;;4.72;67.18;100659.50;105074;1276;97139;-65
2022/02/11 14:52:05;;;;;;;0.90;0.90;;;;;;;4.74;67.35;100661.25;103231;1276;138287;-65
2022/02/11 14:54:35;;;;;;;0.90;0.90;;;;;;;4.75;67.23;100665.83;103377;1276;95642;-66
2022/02/11 14:57:07;;;;;;;1.00;1.00;;;;;;;4.74;66.90;100671.63;103209;1276;138733;-64
2022/02/11 14:59:35;;;;;;;1.00;1.00;;;;;;;4.63;67.02;100673.72;103277;1276;109663;-65
2022/02/11 15:02:06;;;;;;;0.90;0.90;;;;;;;4.65;67.52;100667.56;103346;1277;138363;-64
2022/02/11 15:04:33;;;;;;;1.00;1.00;;;;;;;4.72;67.55;100662.83;103670;1276;108206;-66
2022/02/11 15:07:03;;;;;;;0.90;0.90;;;;;;;4.76;67.24;100665.13;103435;1276;97117;-64
2022/02/11 15:09:31;;;;;;;1.00;1.00;;;;;;;4.80;67.43;100669.00;103424;1276;138486;-65
2022/02/11 15:11:59;;;;;;;1.00;1.00;;;;;;;4.81;67.00;100666.72;103461;1276;111351;-65
2022/02/11 15:14:29;;;;;;;1.10;1.10;;;;;;;4.72;67.04;100671.98;103422;1276;138093;-65
2022/02/11 15:16:57;;;;;;;1.00;1.00;;;;;;;4.62;67.13;100667.73;103483;1276;109162;-65
2022/02/11 15:19:25;;;;;;;1.10;1.10;;;;;;;4.61;67.56;100668.26;103426;1276;95288;-65
2022/02/11 15:21:53;;;;;;;1.10;1.10;;;;;;;4.63;67.59;100676.53;103387;1276;138571;-64
2022/02/11 15:24:21;;;;;;;1.00;1.00;;;;;;;4.58;67.58;100672.48;103413;1276;109681;-65
2022/02/11 15:26:49;;;;;;;1.10;1.10;;;;;;;4.53;67.77;100678.25;103392;1276;137873;-65
2022/02/11 15:29:17;;;;;;;1.10;1.10;;;;;;;4.60;68.02;100683.02;103286;1276;109168;-65
2022/02/11 15:31:45;;;;;;;1.00;1.00;;;;;;;4.72;68.10;100681.48;103677;1276;95200;-65
2022/02/11 15:34:14;;;;;;;1.00;1.00;;;;;;;4.82;67.54;100686.25;103402;1276;137895;-65
2022/02/11 15:36:42;;;;;;;1.00;1.00;;;;;;;4.83;67.49;100686.77;103426;1276;110189;-66